Terminal Aerodrome Forecast
Issued by NWS

Home | Current Version | Previous Version | Text Only | Print | Product List | Glossary On
Versions: 1 2 3 4 5 6 7 8 9 10 11 12 13 14
507
FTUS45 KFGZ 081134
TAFGCN
TAF
KGCN 081134Z 0812/0912 06005KT P6SM SKC
     FM081700 07008G15KT P6SM SKC
     FM090200 VRB04KT P6SM SKC=

USA.gov is the U.S. government's official web portal to all federal, state and local government web resources and services.